Time;durP1;ratioP1;P1;durP2;ratioP2;P2;SDS_P1;SDS_P2;PMS_P1;PMS_P2;Temp;Humidity;BMP_temperature;BMP_pressure;BME280_temperature;BME280_humidity;BME280_pressure;Samples;Min_cycle;Max_cycle;Signal;HPM_P1;HPM_P2
2021/05/17 00:00:56;;;;;;;2.03;1.20;;;;;;;10.07;90.96;99354.19;3594043;40;20158;-58
2021/05/17 00:03:25;;;;;;;2.13;1.30;;;;;;;10.41;89.63;99347.63;3594077;40;20158;-59
2021/05/17 00:05:53;;;;;;;2.25;1.20;;;;;;;10.48;88.48;99352.75;3593953;40;20471;-57
2021/05/17 00:08:20;;;;;;;1.70;1.17;;;;;;;10.64;87.65;99350.28;3593802;39;20073;-56
2021/05/17 00:10:47;;;;;;;1.67;1.15;;;;;;;10.04;90.11;99341.41;3594149;40;20607;-57
2021/05/17 00:13:14;;;;;;;1.48;1.15;;;;;;;10.30;90.00;99344.13;3594324;40;20063;-56
2021/05/17 00:15:42;;;;;;;1.80;1.20;;;;;;;10.47;88.25;99341.66;3594258;40;20072;-59
2021/05/17 00:18:09;;;;;;;1.33;1.23;;;;;;;10.36;88.65;99345.88;3594076;39;20107;-59
2021/05/17 00:20:37;;;;;;;2.20;1.25;;;;;;;10.36;88.53;99341.63;3600321;39;20656;-60
2021/05/17 00:23:04;;;;;;;1.40;1.30;;;;;;;9.84;91.26;99340.41;3600031;39;20091;-59
2021/05/17 00:25:31;;;;;;;2.72;1.10;;;;;;;10.48;89.46;99338.25;3598204;39;20088;-54
2021/05/17 00:27:59;;;;;;;2.05;1.50;;;;;;;9.79;91.64;99340.38;3598030;39;20052;-59
2021/05/17 00:30:29;;;;;;;2.58;1.30;;;;;;;10.13;90.71;99330.38;3599611;39;20060;-57
2021/05/17 00:32:59;;;;;;;2.08;1.10;;;;;;;10.16;90.12;99333.78;3590388;39;20047;-60
2021/05/17 00:35:28;;;;;;;1.75;1.30;;;;;;;10.03;91.28;99342.28;3598024;39;20075;-58
2021/05/17 00:37:55;;;;;;;0.80;0.80;;;;;;;9.85;91.53;99345.56;3598490;39;20385;-60
2021/05/17 00:40:23;;;;;;;2.05;1.20;;;;;;;9.48;93.89;99341.03;3599331;39;20052;-58
2021/05/17 00:42:51;;;;;;;2.22;1.30;;;;;;;9.39;94.88;99340.09;3600121;39;20082;-60
2021/05/17 00:45:19;;;;;;;1.55;1.42;;;;;;;9.85;93.77;99344.72;3599284;39;20058;-60
2021/05/17 00:47:51;;;;;;;1.67;1.52;;;;;;;9.70;94.29;99347.97;3598587;39;20059;-57
2021/05/17 00:50:23;;;;;;;3.65;1.70;;;;;;;9.27;96.04;99334.88;3599638;39;20052;-58
2021/05/17 00:52:52;;;;;;;2.45;1.95;;;;;;;9.03;97.44;99342.31;3600913;39;20305;-59
2021/05/17 00:55:21;;;;;;;2.13;2.00;;;;;;;8.91;99.50;99332.81;3599777;39;20060;-59
2021/05/17 00:57:48;;;;;;;3.67;2.55;;;;;;;8.87;100.00;99334.50;3597377;39;20506;-59
2021/05/17 01:00:18;;;;;;;3.03;2.50;;;;;;;9.00;99.77;99343.13;3600198;39;20080;-60
2021/05/17 01:02:45;;;;;;;2.67;2.47;;;;;;;9.57;97.57;99341.94;3599323;39;20480;-59
2021/05/17 01:05:13;;;;;;;3.05;2.75;;;;;;;9.85;95.83;99340.44;3599794;39;20115;-61
2021/05/17 01:07:46;;;;;;;3.13;2.60;;;;;;;9.65;96.35;99332.63;3600799;39;20063;-59
2021/05/17 01:10:21;;;;;;;3.40;2.80;;;;;;;9.24;98.79;99331.41;3599043;39;20040;-60
2021/05/17 01:12:50;;;;;;;3.65;3.05;;;;;;;9.24;99.49;99341.63;3598112;39;20040;-60
2021/05/17 01:15:19;;;;;;;3.22;2.88;;;;;;;9.31;99.32;99328.94;3598496;39;20084;-58
2021/05/17 01:17:46;;;;;;;3.28;2.97;;;;;;;9.25;100.00;99336.56;3599547;39;20092;-59
2021/05/17 01:20:16;;;;;;;4.50;3.20;;;;;;;9.40;99.38;99336.69;3589639;39;20111;-59
2021/05/17 01:22:53;;;;;;;3.10;2.80;;;;;;;9.67;97.75;99341.16;3584859;40;20111;-59
2021/05/17 01:25:23;;;;;;;7.47;2.42;;;;;;;9.93;95.77;99349.00;3597500;39;20350;-58
2021/05/17 01:27:53;;;;;;;4.97;3.13;;;;;;;9.60;96.91;99349.63;3597772;39;20131;-58
2021/05/17 01:30:22;;;;;;;2.67;2.47;;;;;;;9.39;98.11;99341.78;3598863;39;20056;-60
2021/05/17 01:32:52;;;;;;;3.58;2.65;;;;;;;9.09;99.69;99340.66;3599445;39;20067;-57
2021/05/17 01:35:20;;;;;;;4.32;2.85;;;;;;;8.78;100.00;99342.06;3598356;39;20328;-59
2021/05/17 01:37:49;;;;;;;3.42;3.13;;;;;;;9.43;99.50;99343.53;3597613;39;20051;-59
2021/05/17 01:40:19;;;;;;;3.97;2.78;;;;;;;8.84;100.00;99346.34;3598493;39;20064;-59
2021/05/17 01:42:47;;;;;;;3.70;3.40;;;;;;;9.10;100.00;99349.16;3590095;39;20058;-59
2021/05/17 01:45:15;;;;;;;2.85;2.65;;;;;;;9.44;98.90;99350.34;3598656;39;20080;-60
2021/05/17 01:47:44;;;;;;;5.43;2.92;;;;;;;8.93;100.00;99344.75;3597158;39;20055;-59
2021/05/17 01:50:16;;;;;;;4.15;2.92;;;;;;;9.08;100.00;99351.72;3597734;39;20044;-59
2021/05/17 01:52:44;;;;;;;3.55;3.17;;;;;;;9.41;99.45;99346.06;3599337;39;20339;-58
2021/05/17 01:55:13;;;;;;;3.80;2.78;;;;;;;9.28;100.00;99345.94;3598921;39;20059;-59
2021/05/17 01:57:40;;;;;;;4.00;2.85;;;;;;;9.22;100.00;99351.84;3597032;39;20085;-58
2021/05/17 02:00:12;;;;;;;4.47;4.07;;;;;;;8.97;100.00;99348.22;3597702;39;20052;-61
2021/05/17 02:02:40;;;;;;;3.58;3.13;;;;;;;9.05;100.00;99353.38;3598779;39;20559;-59
2021/05/17 02:05:08;;;;;;;3.28;2.80;;;;;;;9.61;98.47;99359.03;3599451;39;20052;-60
2021/05/17 02:07:35;;;;;;;3.20;2.85;;;;;;;8.99;100.00;99354.16;3597017;39;20079;-58
2021/05/17 02:10:06;;;;;;;3.08;2.78;;;;;;;9.27;100.00;99360.41;3597450;39;20088;-59
2021/05/17 02:12:35;;;;;;;4.50;2.67;;;;;;;9.26;99.60;99360.41;3597463;39;20047;-60
2021/05/17 02:15:03;;;;;;;4.70;2.97;;;;;;;9.02;100.00;99355.91;3597204;39;20055;-58
2021/05/17 02:17:30;;;;;;;3.58;2.92;;;;;;;9.28;100.00;99357.00;3598381;39;20073;-59
2021/05/17 02:19:58;;;;;;;3.33;2.60;;;;;;;9.26;100.00;99358.69;3598958;39;20058;-59
2021/05/17 02:22:26;;;;;;;3.85;2.65;;;;;;;9.00;100.00;99353.31;3597594;39;20055;-59
2021/05/17 02:24:53;;;;;;;3.70;2.88;;;;;;;9.22;99.77;99351.84;3597095;39;20059;-61
2021/05/17 02:27:21;;;;;;;4.57;2.78;;;;;;;9.44;99.20;99356.31;3597943;39;20062;-59
2021/05/17 02:29:49;;;;;;;4.65;2.78;;;;;;;9.09;100.00;99357.66;3599410;39;20202;-57
2021/05/17 02:32:21;;;;;;;2.53;2.28;;;;;;;9.46;99.73;99360.56;3598667;39;20065;-60
2021/05/17 02:34:49;;;;;;;3.00;2.70;;;;;;;9.04;100.00;99364.44;3597575;39;20052;-58
2021/05/17 02:37:16;;;;;;;2.63;2.42;;;;;;;9.24;100.00;99367.19;3597594;39;20783;-61
2021/05/17 02:39:44;;;;;;;2.83;2.40;;;;;;;9.19;100.00;99373.09;3598987;39;20086;-61
2021/05/17 02:42:16;;;;;;;3.10;2.80;;;;;;;8.86;100.00;99371.03;3598550;39;20048;-58
2021/05/17 02:44:44;;;;;;;4.60;2.50;;;;;;;9.32;100.00;99368.97;3597208;39;20090;-60
2021/05/17 02:47:11;;;;;;;3.35;2.55;;;;;;;8.88;100.00;99371.94;3597484;39;20063;-59
2021/05/17 02:49:38;;;;;;;3.40;3.10;;;;;;;9.11;100.00;99366.22;3599183;39;20048;-60
2021/05/17 02:52:06;;;;;;;3.67;3.15;;;;;;;9.18;100.00;99373.94;3599243;39;20076;-59
2021/05/17 02:54:37;;;;;;;4.25;3.00;;;;;;;9.07;99.97;99373.00;3597040;39;20060;-61
2021/05/17 02:57:11;;;;;;;4.80;2.63;;;;;;;8.92;100.00;99365.19;3597302;39;20064;-59
2021/05/17 03:00:29;;;;;;;4.80;2.80;;;;;;;9.32;100.00;99374.06;3594876;39;20051;-59
2021/05/17 03:03:07;;;;;;;;;;;;;;;8.86;100.00;99381.25;3565134;40;20060;-59
2021/05/17 03:05:37;;;;;;;3.13;2.80;;;;;;;9.22;100.00;99381.66;3594202;39;20015;-60
2021/05/17 03:08:12;;;;;;;3.78;2.70;;;;;;;9.40;99.41;99385.22;3598688;39;20088;-61
2021/05/17 03:10:43;;;;;;;3.22;2.78;;;;;;;9.45;98.59;99387.81;3594791;39;20048;-60
2021/05/17 03:13:16;;;;;;;2.92;2.72;;;;;;;9.30;99.23;99388.53;3599537;39;20424;-61
2021/05/17 03:15:45;;;;;;;3.55;2.63;;;;;;;9.69;97.25;99390.59;3601009;39;20056;-61
2021/05/17 03:18:12;;;;;;;2.85;2.25;;;;;;;9.71;96.72;99393.16;3599710;39;20051;-58
2021/05/17 03:20:40;;;;;;;4.20;2.83;;;;;;;9.23;99.44;99381.66;3598380;39;20055;-60
2021/05/17 03:23:13;;;;;;;2.83;2.60;;;;;;;9.62;98.28;99382.88;3598620;39;20060;-60
2021/05/17 03:25:46;;;;;;;2.65;2.25;;;;;;;9.97;95.31;99388.25;3599957;39;20051;-60
2021/05/17 03:28:14;;;;;;;4.00;2.25;;;;;;;10.01;95.23;99395.09;3599599;39;20043;-61
2021/05/17 03:30:41;;;;;;;3.63;2.40;;;;;;;10.01;95.01;99392.53;3598240;39;20091;-58
2021/05/17 03:33:08;;;;;;;3.17;2.30;;;;;;;9.88;95.54;99391.59;3599252;39;20089;-59
2021/05/17 03:35:35;;;;;;;2.72;2.17;;;;;;;10.29;94.09;99393.59;3600134;39;20419;-61
2021/05/17 03:38:04;;;;;;;2.75;2.22;;;;;;;10.21;94.23;99395.22;3600082;39;20062;-59
2021/05/17 03:40:31;;;;;;;3.30;1.70;;;;;;;10.26;93.48;99400.38;3598605;39;20329;-59
2021/05/17 03:42:58;;;;;;;6.47;2.10;;;;;;;10.25;94.34;99396.97;3598613;39;20052;-55
2021/05/17 03:45:25;;;;;;;2.97;1.77;;;;;;;10.26;92.99;99398.72;3599829;39;20067;-59
2021/05/17 03:47:52;;;;;;;2.72;1.70;;;;;;;10.10;93.88;99400.28;3599714;39;20068;-60
2021/05/17 03:50:28;;;;;;;1.90;1.70;;;;;;;10.24;94.59;99402.06;3598755;39;20066;-58
2021/05/17 03:53:02;;;;;;;2.17;1.50;;;;;;;10.54;91.49;99416.75;3598076;39;20060;-59
2021/05/17 03:55:43;;;;;;;3.42;1.85;;;;;;;10.57;91.71;99421.91;3593897;39;20052;-60
2021/05/17 03:58:10;;;;;;;2.15;1.77;;;;;;;10.53;91.75;99420.16;3594533;39;20099;-59
2021/05/17 04:00:38;;;;;;;3.38;1.77;;;;;;;10.52;92.05;99423.56;3600664;39;20578;-60
2021/05/17 04:03:16;;;;;;;3.55;1.85;;;;;;;10.63;91.41;99420.25;3594143;39;20072;-58
2021/05/17 04:06:08;;;;;;;4.43;1.80;;;;;;;10.60;91.30;99429.59;3598380;39;20080;-58
2021/05/17 04:14:01;;;;;;;2.55;1.80;;;;;;;10.65;91.35;99428.78;3600088;39;20111;-60
2021/05/17 04:16:28;;;;;;;3.00;1.50;;;;;;;10.49;91.95;99441.47;3598504;39;20068;-59
2021/05/17 04:18:57;;;;;;;1.70;1.60;;;;;;;10.41;92.45;99442.28;3598413;39;20056;-59
2021/05/17 04:21:24;;;;;;;3.28;1.88;;;;;;;10.52;92.22;99444.06;3599656;39;20055;-59
2021/05/17 04:23:54;;;;;;;3.17;1.52;;;;;;;10.60;92.22;99448.38;3600070;39;20048;-60
2021/05/17 04:26:21;;;;;;;2.70;1.77;;;;;;;10.73;90.70;99444.19;3598838;39;20051;-59
2021/05/17 04:28:48;;;;;;;1.52;1.30;;;;;;;10.73;90.73;99449.31;3598194;39;20084;-59
2021/05/17 04:31:15;;;;;;;4.78;1.60;;;;;;;10.76;90.74;99451.84;3598715;39;20242;-60
2021/05/17 04:33:42;;;;;;;2.97;1.60;;;;;;;10.78;91.07;99450.19;3599878;39;20055;-57
2021/05/17 04:36:09;;;;;;;1.90;1.70;;;;;;;10.85;90.94;99453.59;3599701;39;20083;-56
2021/05/17 04:38:36;;;;;;;1.98;1.73;;;;;;;10.93;90.07;99451.94;3598199;39;20068;-57
2021/05/17 04:41:04;;;;;;;3.03;1.90;;;;;;;10.91;90.06;99457.06;3598227;39;20068;-56
2021/05/17 04:43:31;;;;;;;4.90;2.20;;;;;;;10.67;91.89;99452.66;3597874;39;20105;-58
2021/05/17 04:45:59;;;;;;;3.17;2.15;;;;;;;10.83;91.30;99453.59;3583918;39;21037;-57
2021/05/17 04:48:28;;;;;;;3.55;1.80;;;;;;;10.76;91.91;99461.25;3603395;39;20055;-55
2021/05/17 04:50:55;;;;;;;3.58;1.80;;;;;;;10.84;90.75;99459.59;3599468;39;20070;-57
2021/05/17 04:53:23;;;;;;;4.93;1.85;;;;;;;10.90;91.66;99463.00;3597666;39;20513;-57
2021/05/17 04:55:59;;;;;;;2.40;1.88;;;;;;;10.86;90.94;99468.13;3597881;39;20798;-60
2021/05/17 04:58:26;;;;;;;4.72;2.10;;;;;;;11.25;90.30;99464.03;3599623;39;20052;-59
2021/05/17 05:00:54;;;;;;;3.58;1.83;;;;;;;11.10;89.77;99459.72;3586075;39;20256;-58
2021/05/17 05:03:24;;;;;;;5.25;2.10;;;;;;;11.38;88.67;99458.94;3592477;39;20089;-59
2021/05/17 05:05:51;;;;;;;4.20;2.13;;;;;;;11.40;87.98;99459.78;3576036;39;20044;-59
2021/05/17 05:08:19;;;;;;;2.70;1.60;;;;;;;11.41;88.90;99461.47;3587879;39;20052;-58
2021/05/17 05:10:47;;;;;;;4.68;1.75;;;;;;;11.61;88.46;99468.38;3593928;39;20145;-58
2021/05/17 05:13:15;;;;;;;2.88;1.83;;;;;;;11.66;88.03;99472.66;3591609;39;20064;-53
2021/05/17 05:15:42;;;;;;;4.70;2.00;;;;;;;11.76;87.23;99478.66;3591216;39;20711;-58
2021/05/17 05:18:14;;;;;;;5.90;1.95;;;;;;;11.73;86.67;99473.50;3582948;39;20089;-59
2021/05/17 05:20:42;;;;;;;2.45;1.50;;;;;;;11.79;86.80;99475.25;3591980;39;20403;-59
2021/05/17 05:23:17;;;;;;;2.78;1.80;;;;;;;11.84;86.82;99474.44;3591169;39;20056;-59
2021/05/17 05:28:43;;;;;;;3.03;1.70;;;;;;;11.79;86.06;99470.13;3602583;39;20047;-60
2021/05/17 05:31:19;;;;;;;2.83;1.60;;;;;;;12.03;85.75;99474.44;3600681;39;20058;-57
2021/05/17 05:33:47;;;;;;;2.35;1.85;;;;;;;12.10;85.74;99474.41;3601051;39;20087;-58
2021/05/17 05:36:15;;;;;;;2.58;1.50;;;;;;;12.02;85.60;99465.00;3600133;39;20056;-58
2021/05/17 05:38:43;;;;;;;2.22;1.55;;;;;;;12.53;84.14;99471.84;3601129;39;20692;-57
2021/05/17 05:41:13;;;;;;;9.48;2.13;;;;;;;12.53;82.47;99471.84;3600280;39;20330;-59
2021/05/17 05:43:41;;;;;;;2.55;1.30;;;;;;;12.67;81.90;99479.50;3600576;39;20066;-58
2021/05/17 05:46:09;;;;;;;2.47;1.10;;;;;;;12.80;80.95;99477.75;3599807;39;20082;-57
2021/05/17 05:48:47;;;;;;;3.40;1.40;;;;;;;13.12;79.87;99485.34;3601064;39;20044;-58
2021/05/17 05:51:22;;;;;;;3.65;1.67;;;;;;;12.84;81.87;99477.72;3599922;39;20056;-58
2021/05/17 05:53:50;;;;;;;3.85;1.38;;;;;;;13.13;79.57;99485.34;3600423;39;20075;-58
2021/05/17 05:56:21;;;;;;;1.95;1.30;;;;;;;13.48;78.28;99482.63;3600574;39;20199;-59
2021/05/17 05:58:51;;;;;;;1.10;1.00;;;;;;;13.64;77.63;99483.41;3600983;39;20055;-58
2021/05/17 06:01:23;;;;;;;2.15;1.30;;;;;;;13.57;77.31;99491.16;3600776;39;20059;-59
2021/05/17 06:03:58;;;;;;;1.73;1.02;;;;;;;13.27;77.05;99498.19;3600436;39;20140;-56
2021/05/17 06:06:27;;;;;;;1.55;1.20;;;;;;;13.50;77.94;99492.91;3601109;39;20072;-56
2021/05/17 06:08:55;;;;;;;2.25;1.10;;;;;;;13.28;78.08;99499.88;3600757;39;20048;-58
2021/05/17 06:11:24;;;;;;;2.65;1.20;;;;;;;13.19;79.19;99492.19;3591671;39;20043;-55
2021/05/17 06:13:51;;;;;;;3.03;1.50;;;;;;;12.98;78.36;99496.50;3598517;39;20515;-57
2021/05/17 06:16:19;;;;;;;5.10;1.50;;;;;;;13.06;78.72;99498.22;3599988;39;20083;-55
2021/05/17 06:18:47;;;;;;;1.75;1.38;;;;;;;13.04;78.60;99495.66;3601247;39;20054;-57
2021/05/17 06:21:14;;;;;;;4.53;1.50;;;;;;;13.23;80.42;99496.47;3600311;39;20068;-57
2021/05/17 06:23:43;;;;;;;1.02;0.98;;;;;;;13.38;77.36;99498.97;3601189;39;20089;-59
2021/05/17 06:26:10;;;;;;;3.28;1.17;;;;;;;13.31;78.62;99497.31;3599982;39;20075;-55
2021/05/17 06:28:38;;;;;;;1.08;0.95;;;;;;;13.36;78.63;99502.44;3601634;39;20067;-59
2021/05/17 06:31:06;;;;;;;1.65;1.08;;;;;;;13.44;76.52;99496.34;3599989;39;20376;-58
2021/05/17 06:33:35;;;;;;;2.38;0.93;;;;;;;13.78;76.24;99492.75;3598892;39;20047;-58
2021/05/17 06:36:02;;;;;;;1.77;0.90;;;;;;;13.66;76.73;99498.81;3599849;39;20371;-60
2021/05/17 06:38:32;;;;;;;1.98;1.08;;;;;;;14.17;75.82;99499.31;3600697;39;20297;-55
2021/05/17 06:41:02;;;;;;;2.60;0.90;;;;;;;13.98;74.20;99501.19;3599916;39;20410;-56
2021/05/17 06:43:30;;;;;;;1.60;0.80;;;;;;;14.20;75.20;99497.56;3601138;39;20075;-55
2021/05/17 06:45:57;;;;;;;2.58;0.90;;;;;;;13.89;74.86;99502.09;3599985;39;20179;-54
2021/05/17 06:48:25;;;;;;;3.00;1.15;;;;;;;13.68;76.80;99497.06;3600365;39;20058;-50
2021/05/17 06:50:54;;;;;;;1.60;1.10;;;;;;;13.98;77.26;99502.03;3600594;39;20417;-50
2021/05/17 06:53:24;;;;;;;3.10;1.30;;;;;;;14.13;76.14;99497.63;3601629;39;20060;-51
2021/05/17 06:56:03;;;;;;;2.75;1.17;;;;;;;14.23;74.10;99494.94;3599745;39;20058;-53
2021/05/17 06:58:52;;;;;;;3.08;1.10;;;;;;;14.09;74.87;99495.94;3600167;39;20075;-55
2021/05/17 07:01:21;;;;;;;2.95;1.13;;;;;;;14.84;72.58;99503.88;3602429;39;20058;-55
2021/05/17 07:04:05;;;;;;;1.92;1.00;;;;;;;15.46;70.42;99498.81;3602041;39;20052;-51
2021/05/17 07:06:35;;;;;;;2.10;0.82;;;;;;;15.91;69.20;99505.09;3600271;39;20052;-53
2021/05/17 07:14:19;;;;;;;2.05;0.70;;;;;;;16.64;66.33;99495.25;3600365;39;20055;-49
2021/05/17 07:16:50;;;;;;;2.85;1.00;;;;;;;16.62;65.60;99502.19;3596912;39;20051;-50
2021/05/17 07:19:21;;;;;;;1.08;0.80;;;;;;;17.01;64.18;99503.22;3599029;39;20064;-46
2021/05/17 07:24:44;;;;;;;1.98;0.50;;;;;;;17.48;59.01;99505.69;3598179;39;20048;-53
2021/05/17 07:27:12;;;;;;;0.50;0.50;;;;;;;17.76;58.69;99505.97;3596596;39;20467;-51
2021/05/17 07:29:50;;;;;;;2.17;0.70;;;;;;;18.50;56.90;99503.28;3596567;39;20068;-50
2021/05/17 07:32:21;;;;;;;1.80;0.55;;;;;;;18.29;57.33;99506.41;3596649;39;20067;-46
2021/05/17 07:34:49;;;;;;;1.17;0.50;;;;;;;18.12;58.40;99513.75;3597424;39;20408;-53
2021/05/17 07:37:20;;;;;;;3.45;0.68;;;;;;;17.92;58.33;99512.47;3599575;39;20055;-48
2021/05/17 07:39:54;;;;;;;0.60;0.60;;;;;;;17.42;56.82;99514.41;3599804;39;20063;-48
2021/05/17 07:42:22;;;;;;;2.10;0.77;;;;;;;17.28;59.42;99514.72;3602116;39;20039;-49
2021/05/17 07:44:52;;;;;;;1.88;0.68;;;;;;;17.20;60.11;99511.44;3603040;39;20048;-51
2021/05/17 07:47:23;;;;;;;2.40;0.60;;;;;;;17.40;58.96;99517.94;3604380;39;20055;-56
2021/05/17 07:49:54;;;;;;;0.63;0.50;;;;;;;17.50;58.20;99519.44;3601310;39;20427;-50
2021/05/17 07:52:26;;;;;;;0.65;0.50;;;;;;;16.96;59.37;99515.38;3603758;39;20323;-52
2021/05/17 07:54:59;;;;;;;0.70;0.40;;;;;;;16.95;60.99;99511.06;3602977;39;20088;-50
2021/05/17 07:57:27;;;;;;;0.77;0.43;;;;;;;17.24;58.46;99510.50;3603206;39;20128;-49
2021/05/17 08:00:00;;;;;;;1.00;0.60;;;;;;;16.82;60.71;99521.66;3602233;39;20051;-52
2021/05/17 08:02:31;;;;;;;1.25;0.60;;;;;;;16.62;61.42;99511.66;3603236;39;20067;-49
2021/05/17 08:04:58;;;;;;;1.13;0.50;;;;;;;17.01;59.08;99516.13;3603285;39;20052;-47
2021/05/17 08:07:29;;;;;;;1.38;0.80;;;;;;;17.27;58.69;99519.91;3603600;39;20603;-52
2021/05/17 08:10:00;;;;;;;1.40;0.73;;;;;;;16.97;58.56;99529.16;3601373;39;20051;-54
2021/05/17 08:12:31;;;;;;;1.10;0.75;;;;;;;16.71;60.45;99532.19;3603100;39;20090;-54
2021/05/17 08:15:02;;;;;;;0.98;0.50;;;;;;;17.37;56.75;99533.53;3601636;39;20058;-47
2021/05/17 08:17:32;;;;;;;0.50;0.40;;;;;;;18.01;54.17;99540.75;3603474;39;20042;-51
2021/05/17 08:20:02;;;;;;;1.17;0.47;;;;;;;19.07;52.59;99540.72;3603557;39;20331;-48
2021/05/17 08:22:36;;;;;;;1.30;0.40;;;;;;;19.74;51.41;99548.34;3602568;39;20063;-51
2021/05/17 08:25:05;;;;;;;0.40;0.30;;;;;;;19.20;50.47;99543.81;3602127;39;20047;-55
2021/05/17 08:27:33;;;;;;;0.70;0.70;;;;;;;18.53;51.94;99552.47;3601544;39;20060;-47
2021/05/17 08:30:00;;;;;;;1.88;0.57;;;;;;;18.73;51.99;99554.59;3596300;39;20070;-48
2021/05/17 08:32:31;;;;;;;0.98;0.40;;;;;;;18.48;53.16;99553.47;3600620;39;20059;-55
2021/05/17 08:34:58;;;;;;;2.45;0.60;;;;;;;19.01;52.64;99552.13;3601984;39;20047;-46
2021/05/17 08:37:26;;;;;;;0.70;0.40;;;;;;;18.69;50.59;99544.34;3593571;39;20522;-55
2021/05/17 08:39:53;;;;;;;0.85;0.38;;;;;;;18.64;52.18;99553.94;3600274;39;20146;-54
2021/05/17 08:42:29;;;;;;;;;;;;;;;18.37;53.03;99553.75;3603150;39;20043;-57
2021/05/17 08:44:57;;;;;;;0.50;0.50;;;;;;;18.11;52.68;99544.00;3602305;39;19939;-50
2021/05/17 08:47:28;;;;;;;1.13;0.40;;;;;;;18.04;52.53;99548.47;3602754;39;20042;-52
2021/05/17 08:49:59;;;;;;;1.10;0.40;;;;;;;18.49;52.42;99542.22;3598141;39;20309;-48
2021/05/17 08:52:31;;;;;;;0.43;0.30;;;;;;;18.49;51.65;99547.41;3600494;39;20047;-52
2021/05/17 08:54:58;;;;;;;0.50;0.40;;;;;;;19.31;50.18;99546.94;3602283;39;20448;-50
2021/05/17 08:57:26;;;;;;;0.82;0.50;;;;;;;19.19;51.21;99549.91;3602743;39;20028;-48
2021/05/17 08:59:53;;;;;;;2.55;0.40;;;;;;;19.06;49.95;99555.44;3594871;39;20063;-48
2021/05/17 09:02:22;;;;;;;1.85;0.35;;;;;;;19.03;49.26;99550.31;3598369;39;20066;-49
2021/05/17 09:05:09;;;;;;;0.55;0.40;;;;;;;19.00;49.37;99552.16;3599169;39;20070;-52
2021/05/17 09:08:02;;;;;;;0.80;0.40;;;;;;;19.14;49.76;99544.00;3597321;39;20040;-48
2021/05/17 09:10:36;;;;;;;2.45;0.30;;;;;;;19.10;49.02;99555.34;3598311;39;20140;-52
2021/05/17 09:13:12;;;;;;;1.27;0.38;;;;;;;19.39;48.54;99549.34;3597944;39;20043;-52
2021/05/17 09:15:42;;;;;;;0.80;0.50;;;;;;;19.51;47.40;99546.41;3598722;39;20050;-45
2021/05/17 09:18:17;;;;;;;0.70;0.32;;;;;;;19.81;47.03;99544.66;3599501;39;20052;-51
2021/05/17 09:20:49;;;;;;;0.75;0.40;;;;;;;19.23;48.83;99543.75;3596264;39;20491;-50
2021/05/17 09:23:24;;;;;;;1.30;0.60;;;;;;;19.12;49.37;99548.38;3597117;39;20040;-51
2021/05/17 09:26:12;;;;;;;1.48;0.50;;;;;;;19.23;52.17;99542.00;3595405;39;20395;-55
2021/05/17 09:28:51;;;;;;;1.85;0.50;;;;;;;20.13;50.21;99553.19;3597787;39;20372;-54
2021/05/17 09:31:23;;;;;;;0.90;0.30;;;;;;;20.34;45.84;99549.91;3597012;39;20052;-50
2021/05/17 09:33:55;;;;;;;1.27;0.22;;;;;;;20.28;43.59;99561.34;3591036;39;20073;-49
2021/05/17 09:36:33;;;;;;;0.20;0.20;;;;;;;20.20;43.45;99544.28;3597413;39;20067;-50
2021/05/17 09:39:17;;;;;;;0.47;0.40;;;;;;;19.93;44.54;99548.63;3602261;39;20127;-53
2021/05/17 09:41:56;;;;;;;1.75;0.22;;;;;;;21.07;42.74;99543.97;3597823;39;20055;-49
2021/05/17 09:44:26;;;;;;;1.25;0.38;;;;;;;20.72;43.42;99542.63;3599990;39;20202;-57
2021/05/17 09:47:17;;;;;;;0.38;0.30;;;;;;;22.21;42.48;99548.38;3600178;39;20525;-57
2021/05/17 09:49:55;;;;;;;0.88;0.40;;;;;;;22.52;41.33;99556.66;3597431;39;20417;-55
2021/05/17 09:52:30;;;;;;;0.65;0.40;;;;;;;22.58;41.32;99555.53;3597220;39;20086;-58
2021/05/17 09:55:11;;;;;;;1.35;0.40;;;;;;;21.57;42.45;99557.75;3597185;39;20429;-56
2021/05/17 09:57:51;;;;;;;1.02;0.40;;;;;;;22.07;39.39;99560.19;3597216;39;20035;-58
2021/05/17 10:00:30;;;;;;;2.85;0.40;;;;;;;21.87;39.60;99557.53;3597129;39;20144;-54
2021/05/17 10:03:00;;;;;;;2.15;0.35;;;;;;;23.10;35.80;99567.22;3596926;39;20101;-49
2021/05/17 10:05:35;;;;;;;1.63;0.32;;;;;;;26.46;31.36;99574.75;3597798;39;20067;-50
2021/05/17 10:08:16;;;;;;;0.30;0.30;;;;;;;28.76;28.12;99590.25;3596362;39;20054;-50
2021/05/17 10:10:44;;;;;;;0.93;0.50;;;;;;;29.67;25.92;99593.66;3597556;39;20056;-51
2021/05/17 10:13:12;;;;;;;1.50;0.50;;;;;;;29.32;26.30;99584.69;3595957;39;20074;-55
2021/05/17 10:15:40;;;;;;;2.75;0.45;;;;;;;29.80;24.30;99590.09;3596879;39;20393;-48
2021/05/17 10:18:14;;;;;;;1.27;0.30;;;;;;;29.52;24.38;99578.84;3596459;39;20048;-53
2021/05/17 10:20:44;;;;;;;1.92;0.40;;;;;;;30.86;25.74;99588.47;3591511;39;20040;-52
2021/05/17 10:23:15;;;;;;;0.38;0.38;;;;;;;30.89;27.23;99578.50;3595322;39;20056;-52
2021/05/17 10:25:45;;;;;;;0.40;0.40;;;;;;;31.81;23.53;99589.84;3594990;39;20048;-51
2021/05/17 10:28:17;;;;;;;1.83;0.52;;;;;;;32.37;23.13;99595.03;3595792;39;20298;-49
2021/05/17 10:30:45;;;;;;;2.53;0.40;;;;;;;33.06;21.80;99586.59;3595370;39;20048;-53
2021/05/17 10:33:27;;;;;;;0.68;0.50;;;;;;;32.24;21.59;99593.47;3595661;39;20337;-53
2021/05/17 10:35:54;;;;;;;1.85;0.50;;;;;;;29.06;26.69;99568.88;3596658;39;20088;-52
2021/05/17 10:38:27;;;;;;;0.85;0.40;;;;;;;32.33;22.61;99576.81;3597205;39;20048;-51
2021/05/17 10:41:41;;;;;;;0.82;0.43;;;;;;;33.38;20.71;99586.47;3596793;39;20151;-49
2021/05/17 10:46:46;;;;;;;0.50;0.50;;;;;;;27.76;27.80;99569.53;3591681;39;20067;-53
2021/05/17 10:49:35;;;;;;;0.95;0.52;;;;;;;27.41;26.49;99561.22;3597346;39;20091;-53
2021/05/17 10:52:06;;;;;;;0.80;0.60;;;;;;;27.84;27.54;99558.53;3600035;39;20052;-55
2021/05/17 10:54:39;;;;;;;1.23;0.57;;;;;;;28.79;27.38;99558.38;3600876;39;20117;-49
2021/05/17 10:57:41;;;;;;;1.58;0.47;;;;;;;26.46;28.61;99553.75;3602219;39;20380;-53
2021/05/17 11:00:27;;;;;;;1.48;0.52;;;;;;;25.11;32.41;99560.31;3597254;39;20043;-52
2021/05/17 11:03:21;;;;;;;2.30;0.32;;;;;;;23.41;34.17;99551.97;3600524;39;20127;-56
2021/05/17 11:05:54;;;;;;;0.52;0.30;;;;;;;22.57;36.36;99546.88;3604502;39;20047;-57
2021/05/17 11:08:23;;;;;;;0.60;0.40;;;;;;;21.78;39.04;99542.25;3605236;39;20043;-53
2021/05/17 11:10:56;;;;;;;0.60;0.38;;;;;;;25.63;32.79;99547.84;3654301;22;20435;-57
2021/05/17 11:13:31;;;;;;;1.75;0.35;;;;;;;26.32;30.59;99545.78;3583483;40;20051;-60
2021/05/17 11:16:08;;;;;;;0.93;0.50;;;;;;;30.75;25.91;99547.00;3582666;40;20098;-57
2021/05/17 11:18:38;;;;;;;0.95;0.45;;;;;;;29.85;25.98;99561.59;3583622;40;20056;-60
2021/05/17 11:21:21;;;;;;;1.30;0.45;;;;;;;29.21;26.35;99561.69;3584328;40;20383;-60
2021/05/17 11:23:56;;;;;;;1.15;0.40;;;;;;;27.45;28.71;99553.97;3582669;40;20055;-55
2021/05/17 11:26:30;;;;;;;1.45;0.43;;;;;;;25.74;30.05;99552.50;3584838;40;20431;-58
2021/05/17 11:29:02;;;;;;;2.33;0.70;;;;;;;24.62;32.79;99550.53;3585235;40;20078;-61
2021/05/17 11:31:38;;;;;;;0.50;0.40;;;;;;;23.80;33.74;99550.19;3585077;40;20398;-56
2021/05/17 11:34:16;;;;;;;0.75;0.57;;;;;;;25.92;32.69;99555.06;3585340;40;20059;-60
2021/05/17 11:37:11;;;;;;;0.40;0.30;;;;;;;28.03;28.84;99563.47;3522553;40;20502;-60
2021/05/17 11:39:41;;;;;;;0.63;0.40;;;;;;;27.88;27.28;99562.66;3532969;40;20065;-57
2021/05/17 11:42:13;;;;;;;1.38;0.43;;;;;;;28.85;26.54;99555.34;3525824;40;20058;-56
2021/05/17 11:44:59;;;;;;;0.30;0.30;;;;;;;29.32;25.36;99551.25;3533386;40;20053;-59
2021/05/17 11:47:30;;;;;;;0.88;0.50;;;;;;;33.20;21.50;99572.16;3533194;40;20050;-61
2021/05/17 11:49:59;;;;;;;0.55;0.52;;;;;;;33.43;19.11;99578.13;3534790;40;20293;-59
2021/05/17 11:52:29;;;;;;;1.02;0.40;;;;;;;31.84;20.62;99563.13;3534500;40;20426;-62
2021/05/17 11:54:59;;;;;;;1.73;0.50;;;;;;;27.49;25.65;99551.03;3533616;40;20067;-56
2021/05/17 11:57:35;;;;;;;0.30;0.30;;;;;;;27.69;27.00;99549.81;3531714;40;20140;-61
2021/05/17 12:00:14;;;;;;;0.70;0.20;;;;;;;27.50;25.38;99544.00;3533335;40;20143;-60
2021/05/17 12:02:52;;;;;;;0.50;0.20;;;;;;;26.75;27.11;99530.16;3531090;40;20613;-60
2021/05/17 12:05:22;;;;;;;1.67;0.40;;;;;;;30.99;23.45;99552.19;3532815;40;20055;-61
2021/05/17 12:07:52;;;;;;;1.58;0.50;;;;;;;31.10;22.87;99546.06;3533089;40;20059;-61
2021/05/17 12:10:21;;;;;;;2.25;0.40;;;;;;;29.64;23.50;99553.44;3533235;40;20055;-59
2021/05/17 12:12:53;;;;;;;0.40;0.32;;;;;;;29.72;24.04;99550.22;3532940;40;20054;-60